sensor_id;sensor_type;location;lat;lon;timestamp;P1;durP1;ratioP1;P2;durP2;ratioP2
20287;SDS011;10303;51.960;8.372;2022-11-20T00:01:11;7.30;;;5.43;;
20287;SDS011;10303;51.960;8.372;2022-11-20T00:03:40;10.93;;;5.80;;
20287;SDS011;10303;51.960;8.372;2022-11-20T00:06:08;9.03;;;5.80;;
20287;SDS011;10303;51.960;8.372;2022-11-20T00:08:37;8.93;;;4.80;;
20287;SDS011;10303;51.960;8.372;2022-11-20T00:11:07;10.63;;;5.73;;
20287;SDS011;10303;51.960;8.372;2022-11-20T00:13:46;9.53;;;4.67;;
20287;SDS011;10303;51.960;8.372;2022-11-20T00:16:16;8.50;;;4.90;;
20287;SDS011;10303;51.960;8.372;2022-11-20T00:18:44;7.77;;;4.67;;
20287;SDS011;10303;51.960;8.372;2022-11-20T00:21:12;5.97;;;4.33;;
20287;SDS011;10303;51.960;8.372;2022-11-20T00:23:42;6.63;;;4.93;;
20287;SDS011;10303;51.960;8.372;2022-11-20T00:26:09;6.40;;;4.03;;
20287;SDS011;10303;51.960;8.372;2022-11-20T00:28:39;9.23;;;5.77;;
20287;SDS011;10303;51.960;8.372;2022-11-20T00:31:09;8.60;;;3.97;;
20287;SDS011;10303;51.960;8.372;2022-11-20T00:33:38;7.60;;;4.43;;
20287;SDS011;10303;51.960;8.372;2022-11-20T00:36:06;10.20;;;4.77;;
20287;SDS011;10303;51.960;8.372;2022-11-20T00:38:38;6.60;;;4.53;;
20287;SDS011;10303;51.960;8.372;2022-11-20T00:41:05;8.03;;;5.30;;
20287;SDS011;10303;51.960;8.372;2022-11-20T00:43:34;8.43;;;4.27;;
20287;SDS011;10303;51.960;8.372;2022-11-20T00:46:06;10.67;;;5.47;;
20287;SDS011;10303;51.960;8.372;2022-11-20T00:48:42;8.10;;;4.40;;
20287;SDS011;10303;51.960;8.372;2022-11-20T00:51:09;7.87;;;5.20;;
20287;SDS011;10303;51.960;8.372;2022-11-20T00:53:41;9.47;;;5.00;;
20287;SDS011;10303;51.960;8.372;2022-11-20T00:56:08;6.57;;;4.23;;
20287;SDS011;10303;51.960;8.372;2022-11-20T00:58:38;8.17;;;4.30;;
20287;SDS011;10303;51.960;8.372;2022-11-20T01:01:08;4.97;;;4.23;;
20287;SDS011;10303;51.960;8.372;2022-11-20T01:03:39;12.60;;;5.03;;
20287;SDS011;10303;51.960;8.372;2022-11-20T01:06:18;10.53;;;4.77;;
20287;SDS011;10303;51.960;8.372;2022-11-20T01:08:54;7.97;;;5.30;;
20287;SDS011;10303;51.960;8.372;2022-11-20T01:11:26;10.80;;;5.43;;
20287;SDS011;10303;51.960;8.372;2022-11-20T01:13:56;9.67;;;5.50;;
20287;SDS011;10303;51.960;8.372;2022-11-20T01:16:34;8.13;;;4.57;;
20287;SDS011;10303;51.960;8.372;2022-11-20T01:19:05;6.53;;;4.63;;
20287;SDS011;10303;51.960;8.372;2022-11-20T01:21:37;5.10;;;4.43;;
20287;SDS011;10303;51.960;8.372;2022-11-20T01:24:06;9.07;;;5.27;;
20287;SDS011;10303;51.960;8.372;2022-11-20T01:26:36;11.73;;;5.20;;
20287;SDS011;10303;51.960;8.372;2022-11-20T01:29:05;11.03;;;4.60;;
20287;SDS011;10303;51.960;8.372;2022-11-20T01:31:33;17.67;;;4.67;;
20287;SDS011;10303;51.960;8.372;2022-11-20T01:34:03;10.83;;;4.90;;
20287;SDS011;10303;51.960;8.372;2022-11-20T01:36:33;7.37;;;4.07;;
20287;SDS011;10303;51.960;8.372;2022-11-20T01:39:03;6.77;;;5.20;;
20287;SDS011;10303;51.960;8.372;2022-11-20T01:41:36;7.77;;;5.03;;
20287;SDS011;10303;51.960;8.372;2022-11-20T01:44:39;7.87;;;5.03;;
20287;SDS011;10303;51.960;8.372;2022-11-20T01:47:24;8.00;;;4.97;;
20287;SDS011;10303;51.960;8.372;2022-11-20T01:50:14;11.93;;;6.53;;
20287;SDS011;10303;51.960;8.372;2022-11-20T01:52:52;8.73;;;4.87;;
20287;SDS011;10303;51.960;8.372;2022-11-20T01:55:31;7.70;;;4.83;;
20287;SDS011;10303;51.960;8.372;2022-11-20T01:58:03;10.27;;;5.47;;
20287;SDS011;10303;51.960;8.372;2022-11-20T02:00:30;8.07;;;4.80;;
20287;SDS011;10303;51.960;8.372;2022-11-20T02:02:57;10.80;;;5.03;;
20287;SDS011;10303;51.960;8.372;2022-11-20T02:05:38;19.33;;;6.17;;
20287;SDS011;10303;51.960;8.372;2022-11-20T02:08:20;4.93;;;4.13;;
20287;SDS011;10303;51.960;8.372;2022-11-20T02:10:48;11.37;;;5.20;;
20287;SDS011;10303;51.960;8.372;2022-11-20T02:13:14;9.20;;;5.70;;
20287;SDS011;10303;51.960;8.372;2022-11-20T02:16:00;9.03;;;5.10;;
20287;SDS011;10303;51.960;8.372;2022-11-20T02:18:27;7.60;;;5.23;;
20287;SDS011;10303;51.960;8.372;2022-11-20T02:20:58;7.93;;;4.83;;
20287;SDS011;10303;51.960;8.372;2022-11-20T02:26:20;7.27;;;4.40;;
20287;SDS011;10303;51.960;8.372;2022-11-20T02:28:50;8.73;;;5.60;;
20287;SDS011;10303;51.960;8.372;2022-11-20T02:31:16;6.90;;;4.57;;
20287;SDS011;10303;51.960;8.372;2022-11-20T02:33:42;12.13;;;6.40;;
20287;SDS011;10303;51.960;8.372;2022-11-20T02:36:09;10.70;;;5.80;;
20287;SDS011;10303;51.960;8.372;2022-11-20T02:38:40;10.07;;;5.57;;
20287;SDS011;10303;51.960;8.372;2022-11-20T02:41:08;9.23;;;5.70;;
20287;SDS011;10303;51.960;8.372;2022-11-20T02:43:34;8.23;;;5.17;;
20287;SDS011;10303;51.960;8.372;2022-11-20T02:46:00;11.97;;;5.90;;
20287;SDS011;10303;51.960;8.372;2022-11-20T02:48:26;10.43;;;5.17;;
20287;SDS011;10303;51.960;8.372;2022-11-20T02:50:52;8.33;;;5.10;;
20287;SDS011;10303;51.960;8.372;2022-11-20T02:53:18;7.77;;;4.90;;
20287;SDS011;10303;51.960;8.372;2022-11-20T02:55:44;9.57;;;5.13;;
20287;SDS011;10303;51.960;8.372;2022-11-20T02:58:10;8.63;;;4.90;;
20287;SDS011;10303;51.960;8.372;2022-11-20T03:00:36;6.47;;;5.33;;
20287;SDS011;10303;51.960;8.372;2022-11-20T03:03:02;9.60;;;4.53;;
20287;SDS011;10303;51.960;8.372;2022-11-20T03:05:28;8.93;;;5.73;;
20287;SDS011;10303;51.960;8.372;2022-11-20T03:07:54;7.00;;;4.87;;
20287;SDS011;10303;51.960;8.372;2022-11-20T03:10:20;8.90;;;5.47;;
20287;SDS011;10303;51.960;8.372;2022-11-20T03:12:46;7.97;;;4.93;;
20287;SDS011;10303;51.960;8.372;2022-11-20T03:15:12;10.00;;;5.40;;
20287;SDS011;10303;51.960;8.372;2022-11-20T03:17:38;9.33;;;5.47;;
20287;SDS011;10303;51.960;8.372;2022-11-20T03:20:04;9.20;;;5.03;;
20287;SDS011;10303;51.960;8.372;2022-11-20T03:22:31;9.37;;;5.77;;
20287;SDS011;10303;51.960;8.372;2022-11-20T03:24:57;6.57;;;4.90;;
20287;SDS011;10303;51.960;8.372;2022-11-20T03:27:23;10.83;;;5.27;;
20287;SDS011;10303;51.960;8.372;2022-11-20T03:29:49;6.93;;;5.03;;
20287;SDS011;10303;51.960;8.372;2022-11-20T03:32:15;9.33;;;5.20;;
20287;SDS011;10303;51.960;8.372;2022-11-20T03:34:42;9.30;;;5.83;;
20287;SDS011;10303;51.960;8.372;2022-11-20T03:37:08;11.23;;;5.30;;
20287;SDS011;10303;51.960;8.372;2022-11-20T03:39:33;10.23;;;5.63;;
20287;SDS011;10303;51.960;8.372;2022-11-20T03:41:59;8.70;;;6.03;;
20287;SDS011;10303;51.960;8.372;2022-11-20T03:44:25;7.47;;;5.00;;
20287;SDS011;10303;51.960;8.372;2022-11-20T03:46:51;9.13;;;4.90;;
20287;SDS011;10303;51.960;8.372;2022-11-20T03:49:17;6.10;;;4.67;;
20287;SDS011;10303;51.960;8.372;2022-11-20T03:51:43;11.70;;;5.73;;
20287;SDS011;10303;51.960;8.372;2022-11-20T03:54:09;9.73;;;5.00;;
20287;SDS011;10303;51.960;8.372;2022-11-20T03:56:36;7.47;;;4.80;;
20287;SDS011;10303;51.960;8.372;2022-11-20T03:59:04;5.33;;;4.20;;
20287;SDS011;10303;51.960;8.372;2022-11-20T04:01:32;11.47;;;5.10;;
20287;SDS011;10303;51.960;8.372;2022-11-20T04:04:00;5.87;;;3.90;;
20287;SDS011;10303;51.960;8.372;2022-11-20T04:06:28;9.03;;;5.30;;
20287;SDS011;10303;51.960;8.372;2022-11-20T04:08:59;7.30;;;4.93;;
20287;SDS011;10303;51.960;8.372;2022-11-20T04:11:29;9.67;;;5.50;;
20287;SDS011;10303;51.960;8.372;2022-11-20T04:13:59;6.50;;;4.63;;
20287;SDS011;10303;51.960;8.372;2022-11-20T04:16:32;8.77;;;5.13;;
20287;SDS011;10303;51.960;8.372;2022-11-20T04:19:01;8.80;;;5.13;;
20287;SDS011;10303;51.960;8.372;2022-11-20T04:21:31;10.00;;;5.27;;
20287;SDS011;10303;51.960;8.372;2022-11-20T04:23:58;10.57;;;5.63;;
20287;SDS011;10303;51.960;8.372;2022-11-20T04:26:25;7.97;;;4.47;;
20287;SDS011;10303;51.960;8.372;2022-11-20T04:28:53;8.17;;;5.60;;
20287;SDS011;10303;51.960;8.372;2022-11-20T04:31:23;10.77;;;5.57;;
20287;SDS011;10303;51.960;8.372;2022-11-20T04:33:52;12.93;;;5.80;;
20287;SDS011;10303;51.960;8.372;2022-11-20T04:36:20;9.03;;;5.27;;
20287;SDS011;10303;51.960;8.372;2022-11-20T04:38:52;10.20;;;5.13;;
20287;SDS011;10303;51.960;8.372;2022-11-20T04:41:22;6.93;;;4.47;;
20287;SDS011;10303;51.960;8.372;2022-11-20T04:43:55;9.70;;;5.40;;
20287;SDS011;10303;51.960;8.372;2022-11-20T04:46:27;6.67;;;4.47;;
20287;SDS011;10303;51.960;8.372;2022-11-20T04:48:55;9.63;;;4.70;;
20287;SDS011;10303;51.960;8.372;2022-11-20T04:51:22;5.83;;;4.30;;
20287;SDS011;10303;51.960;8.372;2022-11-20T04:53:48;9.23;;;4.53;;
20287;SDS011;10303;51.960;8.372;2022-11-20T04:56:14;9.73;;;4.40;;
20287;SDS011;10303;51.960;8.372;2022-11-20T04:58:40;6.23;;;4.50;;
20287;SDS011;10303;51.960;8.372;2022-11-20T05:01:09;7.37;;;4.43;;
20287;SDS011;10303;51.960;8.372;2022-11-20T05:03:40;6.20;;;4.50;;
20287;SDS011;10303;51.960;8.372;2022-11-20T05:06:08;9.67;;;4.43;;
20287;SDS011;10303;51.960;8.372;2022-11-20T05:08:39;7.40;;;4.17;;
20287;SDS011;10303;51.960;8.372;2022-11-20T05:11:10;7.00;;;4.10;;
20287;SDS011;10303;51.960;8.372;2022-11-20T05:13:40;7.70;;;4.40;;
20287;SDS011;10303;51.960;8.372;2022-11-20T05:16:07;7.20;;;4.23;;
20287;SDS011;10303;51.960;8.372;2022-11-20T05:18:36;7.00;;;5.13;;
20287;SDS011;10303;51.960;8.372;2022-11-20T05:21:03;8.30;;;5.03;;
20287;SDS011;10303;51.960;8.372;2022-11-20T05:23:31;10.27;;;5.57;;
20287;SDS011;10303;51.960;8.372;2022-11-20T05:25:57;6.47;;;4.07;;
20287;SDS011;10303;51.960;8.372;2022-11-20T05:28:24;5.67;;;3.57;;
20287;SDS011;10303;51.960;8.372;2022-11-20T05:30:52;11.20;;;5.50;;
20287;SDS011;10303;51.960;8.372;2022-11-20T05:33:18;9.67;;;5.20;;
20287;SDS011;10303;51.960;8.372;2022-11-20T05:35:45;8.67;;;3.83;;
20287;SDS011;10303;51.960;8.372;2022-11-20T05:38:11;5.57;;;3.53;;
20287;SDS011;10303;51.960;8.372;2022-11-20T05:40:37;5.83;;;3.40;;
20287;SDS011;10303;51.960;8.372;2022-11-20T05:43:03;8.90;;;3.67;;
20287;SDS011;10303;51.960;8.372;2022-11-20T05:45:29;7.87;;;3.33;;
20287;SDS011;10303;51.960;8.372;2022-11-20T05:47:57;5.80;;;3.70;;
20287;SDS011;10303;51.960;8.372;2022-11-20T05:50:28;6.37;;;3.40;;
20287;SDS011;10303;51.960;8.372;2022-11-20T05:52:54;6.50;;;3.33;;
20287;SDS011;10303;51.960;8.372;2022-11-20T05:55:19;6.70;;;3.50;;
20287;SDS011;10303;51.960;8.372;2022-11-20T05:57:46;3.40;;;2.93;;
20287;SDS011;10303;51.960;8.372;2022-11-20T06:00:12;5.00;;;3.20;;
20287;SDS011;10303;51.960;8.372;2022-11-20T06:02:38;5.43;;;3.40;;
20287;SDS011;10303;51.960;8.372;2022-11-20T06:05:04;5.87;;;3.63;;
20287;SDS011;10303;51.960;8.372;2022-11-20T06:07:31;4.83;;;2.90;;
20287;SDS011;10303;51.960;8.372;2022-11-20T06:09:57;5.13;;;2.97;;
20287;SDS011;10303;51.960;8.372;2022-11-20T06:12:23;6.37;;;3.03;;
20287;SDS011;10303;51.960;8.372;2022-11-20T06:14:48;6.87;;;3.13;;
20287;SDS011;10303;51.960;8.372;2022-11-20T06:17:14;5.10;;;3.37;;
20287;SDS011;10303;51.960;8.372;2022-11-20T06:19:40;4.13;;;3.07;;
20287;SDS011;10303;51.960;8.372;2022-11-20T06:22:06;3.43;;;2.57;;
20287;SDS011;10303;51.960;8.372;2022-11-20T06:24:32;7.93;;;3.10;;
20287;SDS011;10303;51.960;8.372;2022-11-20T06:26:58;4.87;;;2.87;;
20287;SDS011;10303;51.960;8.372;2022-11-20T06:29:24;8.37;;;3.67;;
20287;SDS011;10303;51.960;8.372;2022-11-20T06:31:50;5.07;;;2.93;;
20287;SDS011;10303;51.960;8.372;2022-11-20T06:34:16;5.03;;;3.13;;
20287;SDS011;10303;51.960;8.372;2022-11-20T06:36:42;5.90;;;3.23;;
20287;SDS011;10303;51.960;8.372;2022-11-20T06:39:07;5.83;;;3.00;;
20287;SDS011;10303;51.960;8.372;2022-11-20T06:41:33;4.33;;;2.60;;
20287;SDS011;10303;51.960;8.372;2022-11-20T06:43:59;4.33;;;3.17;;
20287;SDS011;10303;51.960;8.372;2022-11-20T06:46:25;5.00;;;3.07;;
20287;SDS011;10303;51.960;8.372;2022-11-20T06:48:52;3.60;;;2.80;;
20287;SDS011;10303;51.960;8.372;2022-11-20T06:51:18;3.17;;;2.63;;
20287;SDS011;10303;51.960;8.372;2022-11-20T06:53:44;6.63;;;3.63;;
20287;SDS011;10303;51.960;8.372;2022-11-20T06:56:10;5.63;;;3.67;;
20287;SDS011;10303;51.960;8.372;2022-11-20T06:58:36;2.77;;;2.57;;
20287;SDS011;10303;51.960;8.372;2022-11-20T07:01:04;7.27;;;3.03;;
20287;SDS011;10303;51.960;8.372;2022-11-20T07:03:39;3.53;;;3.07;;
20287;SDS011;10303;51.960;8.372;2022-11-20T07:06:06;3.07;;;2.83;;
20287;SDS011;10303;51.960;8.372;2022-11-20T07:08:32;4.63;;;3.17;;
20287;SDS011;10303;51.960;8.372;2022-11-20T07:11:00;3.63;;;2.90;;
20287;SDS011;10303;51.960;8.372;2022-11-20T07:13:30;5.20;;;3.03;;
20287;SDS011;10303;51.960;8.372;2022-11-20T07:16:00;3.00;;;2.70;;
20287;SDS011;10303;51.960;8.372;2022-11-20T07:18:28;4.60;;;3.27;;
20287;SDS011;10303;51.960;8.372;2022-11-20T07:20:54;4.13;;;2.57;;
20287;SDS011;10303;51.960;8.372;2022-11-20T07:23:21;4.37;;;2.77;;
20287;SDS011;10303;51.960;8.372;2022-11-20T07:25:47;3.20;;;2.37;;
20287;SDS011;10303;51.960;8.372;2022-11-20T07:28:13;7.07;;;2.93;;
20287;SDS011;10303;51.960;8.372;2022-11-20T07:30:39;4.53;;;2.87;;
20287;SDS011;10303;51.960;8.372;2022-11-20T07:33:05;5.63;;;3.00;;
20287;SDS011;10303;51.960;8.372;2022-11-20T07:35:31;4.23;;;2.20;;
20287;SDS011;10303;51.960;8.372;2022-11-20T07:37:57;6.00;;;3.27;;
20287;SDS011;10303;51.960;8.372;2022-11-20T07:40:23;3.97;;;2.53;;
20287;SDS011;10303;51.960;8.372;2022-11-20T07:42:50;3.77;;;2.80;;
20287;SDS011;10303;51.960;8.372;2022-11-20T07:45:18;4.67;;;2.80;;
20287;SDS011;10303;51.960;8.372;2022-11-20T07:47:45;4.67;;;2.27;;
20287;SDS011;10303;51.960;8.372;2022-11-20T07:50:14;5.27;;;3.07;;
20287;SDS011;10303;51.960;8.372;2022-11-20T07:52:41;5.27;;;3.07;;
20287;SDS011;10303;51.960;8.372;2022-11-20T07:55:08;3.90;;;2.67;;
20287;SDS011;10303;51.960;8.372;2022-11-20T07:57:35;4.10;;;2.83;;
20287;SDS011;10303;51.960;8.372;2022-11-20T08:00:05;4.20;;;2.63;;
20287;SDS011;10303;51.960;8.372;2022-11-20T08:02:39;3.23;;;2.83;;
20287;SDS011;10303;51.960;8.372;2022-11-20T08:05:08;3.40;;;2.40;;
20287;SDS011;10303;51.960;8.372;2022-11-20T08:07:39;2.60;;;2.23;;
20287;SDS011;10303;51.960;8.372;2022-11-20T08:10:08;5.10;;;2.83;;
20287;SDS011;10303;51.960;8.372;2022-11-20T08:12:47;4.43;;;2.27;;
20287;SDS011;10303;51.960;8.372;2022-11-20T08:15:35;3.30;;;2.57;;
20287;SDS011;10303;51.960;8.372;2022-11-20T08:18:04;6.10;;;2.93;;
20287;SDS011;10303;51.960;8.372;2022-11-20T08:20:39;5.43;;;3.20;;
20287;SDS011;10303;51.960;8.372;2022-11-20T08:23:06;3.73;;;3.07;;
20287;SDS011;10303;51.960;8.372;2022-11-20T08:25:33;5.27;;;3.37;;
20287;SDS011;10303;51.960;8.372;2022-11-20T08:28:04;6.50;;;3.63;;
20287;SDS011;10303;51.960;8.372;2022-11-20T08:30:32;3.07;;;2.73;;
20287;SDS011;10303;51.960;8.372;2022-11-20T08:33:03;5.00;;;3.03;;
20287;SDS011;10303;51.960;8.372;2022-11-20T08:35:34;4.17;;;2.97;;
20287;SDS011;10303;51.960;8.372;2022-11-20T08:38:04;5.03;;;3.27;;
20287;SDS011;10303;51.960;8.372;2022-11-20T08:40:31;4.50;;;2.73;;
20287;SDS011;10303;51.960;8.372;2022-11-20T08:42:58;4.57;;;2.23;;
20287;SDS011;10303;51.960;8.372;2022-11-20T08:45:26;4.53;;;3.17;;
20287;SDS011;10303;51.960;8.372;2022-11-20T08:47:52;7.07;;;3.70;;
20287;SDS011;10303;51.960;8.372;2022-11-20T08:50:18;4.90;;;3.57;;
20287;SDS011;10303;51.960;8.372;2022-11-20T08:52:44;8.60;;;4.53;;
20287;SDS011;10303;51.960;8.372;2022-11-20T08:55:10;3.93;;;3.43;;
20287;SDS011;10303;51.960;8.372;2022-11-20T08:57:37;4.00;;;3.03;;
20287;SDS011;10303;51.960;8.372;2022-11-20T09:00:04;5.60;;;3.63;;
20287;SDS011;10303;51.960;8.372;2022-11-20T09:02:33;6.33;;;4.27;;
20287;SDS011;10303;51.960;8.372;2022-11-20T09:04:59;7.63;;;4.57;;
20287;SDS011;10303;51.960;8.372;2022-11-20T09:07:27;6.30;;;4.17;;
20287;SDS011;10303;51.960;8.372;2022-11-20T09:09:54;6.90;;;4.37;;
20287;SDS011;10303;51.960;8.372;2022-11-20T09:12:20;3.83;;;3.27;;
20287;SDS011;10303;51.960;8.372;2022-11-20T09:14:46;4.70;;;3.60;;
20287;SDS011;10303;51.960;8.372;2022-11-20T09:17:12;6.23;;;3.67;;
20287;SDS011;10303;51.960;8.372;2022-11-20T09:19:40;6.43;;;3.40;;
20287;SDS011;10303;51.960;8.372;2022-11-20T09:22:06;3.83;;;2.63;;
20287;SDS011;10303;51.960;8.372;2022-11-20T09:24:32;2.33;;;2.13;;
20287;SDS011;10303;51.960;8.372;2022-11-20T09:27:00;3.40;;;2.43;;
20287;SDS011;10303;51.960;8.372;2022-11-20T09:29:28;4.70;;;2.67;;
20287;SDS011;10303;51.960;8.372;2022-11-20T09:31:54;5.10;;;3.30;;
20287;SDS011;10303;51.960;8.372;2022-11-20T09:34:20;3.67;;;2.57;;
20287;SDS011;10303;51.960;8.372;2022-11-20T09:36:48;2.90;;;2.23;;
20287;SDS011;10303;51.960;8.372;2022-11-20T10:04:15;3.73;;;2.83;;
20287;SDS011;10303;51.960;8.372;2022-11-20T10:10:00;5.43;;;3.50;;
20287;SDS011;10303;51.960;8.372;2022-11-20T10:29:39;4.50;;;3.77;;
20287;SDS011;10303;51.960;8.372;2022-11-20T10:32:17;4.20;;;3.30;;
20287;SDS011;10303;51.960;8.372;2022-11-20T10:37:27;4.63;;;3.93;;
20287;SDS011;10303;51.960;8.372;2022-11-20T10:42:43;5.70;;;3.87;;
20287;SDS011;10303;51.960;8.372;2022-11-20T10:45:48;5.43;;;3.60;;
20287;SDS011;10303;51.960;8.372;2022-11-20T10:48:31;6.13;;;4.87;;
20287;SDS011;10303;51.960;8.372;2022-11-20T10:56:46;8.57;;;5.47;;
20287;SDS011;10303;51.960;8.372;2022-11-20T11:02:20;6.70;;;4.70;;
20287;SDS011;10303;51.960;8.372;2022-11-20T11:04:50;6.77;;;5.13;;
20287;SDS011;10303;51.960;8.372;2022-11-20T11:10:01;7.90;;;4.90;;
20287;SDS011;10303;51.960;8.372;2022-11-20T11:12:49;6.37;;;4.70;;
20287;SDS011;10303;51.960;8.372;2022-11-20T11:15:26;5.00;;;4.17;;
20287;SDS011;10303;51.960;8.372;2022-11-20T11:18:04;6.10;;;4.23;;
20287;SDS011;10303;51.960;8.372;2022-11-20T11:20:33;6.47;;;4.17;;
20287;SDS011;10303;51.960;8.372;2022-11-20T11:23:00;6.07;;;5.03;;
20287;SDS011;10303;51.960;8.372;2022-11-20T11:25:27;5.67;;;4.70;;
20287;SDS011;10303;51.960;8.372;2022-11-20T11:27:56;5.13;;;4.47;;
20287;SDS011;10303;51.960;8.372;2022-11-20T11:30:26;6.30;;;4.73;;
20287;SDS011;10303;51.960;8.372;2022-11-20T11:33:08;6.47;;;4.90;;
20287;SDS011;10303;51.960;8.372;2022-11-20T11:35:48;5.63;;;4.40;;
20287;SDS011;10303;51.960;8.372;2022-11-20T11:41:03;5.80;;;4.60;;
20287;SDS011;10303;51.960;8.372;2022-11-20T11:43:35;6.03;;;5.00;;
20287;SDS011;10303;51.960;8.372;2022-11-20T11:46:24;4.43;;;4.03;;
20287;SDS011;10303;51.960;8.372;2022-11-20T11:49:00;5.17;;;4.67;;
20287;SDS011;10303;51.960;8.372;2022-11-20T11:54:51;6.63;;;4.37;;
20287;SDS011;10303;51.960;8.372;2022-11-20T11:57:23;4.40;;;4.00;;
20287;SDS011;10303;51.960;8.372;2022-11-20T12:00:15;6.40;;;4.80;;
20287;SDS011;10303;51.960;8.372;2022-11-20T12:05:23;3.83;;;3.47;;
20287;SDS011;10303;51.960;8.372;2022-11-20T12:16:52;4.33;;;3.67;;
20287;SDS011;10303;51.960;8.372;2022-11-20T12:19:20;3.73;;;3.17;;
20287;SDS011;10303;51.960;8.372;2022-11-20T12:21:59;4.53;;;3.73;;
20287;SDS011;10303;51.960;8.372;2022-11-20T12:30:34;5.77;;;3.37;;
20287;SDS011;10303;51.960;8.372;2022-11-20T12:36:38;5.23;;;4.00;;
20287;SDS011;10303;51.960;8.372;2022-11-20T12:39:30;5.53;;;4.17;;
20287;SDS011;10303;51.960;8.372;2022-11-20T12:42:17;7.33;;;4.90;;
20287;SDS011;10303;51.960;8.372;2022-11-20T13:00:28;5.53;;;4.23;;
20287;SDS011;10303;51.960;8.372;2022-11-20T13:03:13;5.17;;;4.40;;
20287;SDS011;10303;51.960;8.372;2022-11-20T13:08:35;5.57;;;4.30;;
20287;SDS011;10303;51.960;8.372;2022-11-20T13:17:07;7.47;;;5.07;;
20287;SDS011;10303;51.960;8.372;2022-11-20T13:19:38;5.27;;;4.27;;
20287;SDS011;10303;51.960;8.372;2022-11-20T13:22:05;6.60;;;4.47;;
20287;SDS011;10303;51.960;8.372;2022-11-20T13:24:34;4.13;;;3.27;;
20287;SDS011;10303;51.960;8.372;2022-11-20T13:29:44;5.13;;;3.60;;
20287;SDS011;10303;51.960;8.372;2022-11-20T13:32:24;7.40;;;4.40;;
20287;SDS011;10303;51.960;8.372;2022-11-20T13:34:54;5.87;;;4.60;;
20287;SDS011;10303;51.960;8.372;2022-11-20T13:37:31;5.13;;;3.80;;
20287;SDS011;10303;51.960;8.372;2022-11-20T13:45:32;5.53;;;3.33;;
20287;SDS011;10303;51.960;8.372;2022-11-20T13:48:03;4.97;;;3.70;;
20287;SDS011;10303;51.960;8.372;2022-11-20T13:51:00;6.73;;;4.27;;
20287;SDS011;10303;51.960;8.372;2022-11-20T13:54:01;3.37;;;2.70;;
20287;SDS011;10303;51.960;8.372;2022-11-20T14:02:25;4.43;;;3.03;;
20287;SDS011;10303;51.960;8.372;2022-11-20T14:04:56;3.70;;;3.00;;
20287;SDS011;10303;51.960;8.372;2022-11-20T14:07:37;6.67;;;3.67;;
20287;SDS011;10303;51.960;8.372;2022-11-20T14:13:15;6.23;;;4.27;;
20287;SDS011;10303;51.960;8.372;2022-11-20T14:15:45;5.77;;;3.37;;
20287;SDS011;10303;51.960;8.372;2022-11-20T14:18:13;4.33;;;3.40;;
20287;SDS011;10303;51.960;8.372;2022-11-20T14:20:47;6.40;;;3.90;;
20287;SDS011;10303;51.960;8.372;2022-11-20T14:23:22;5.13;;;3.53;;
20287;SDS011;10303;51.960;8.372;2022-11-20T14:25:53;5.13;;;3.50;;
20287;SDS011;10303;51.960;8.372;2022-11-20T14:28:27;4.00;;;3.13;;
20287;SDS011;10303;51.960;8.372;2022-11-20T14:30:56;4.07;;;3.57;;
20287;SDS011;10303;51.960;8.372;2022-11-20T14:33:23;8.33;;;3.70;;
20287;SDS011;10303;51.960;8.372;2022-11-20T14:35:53;4.93;;;3.87;;
20287;SDS011;10303;51.960;8.372;2022-11-20T14:38:23;4.90;;;3.30;;
20287;SDS011;10303;51.960;8.372;2022-11-20T14:40:53;5.53;;;3.93;;
20287;SDS011;10303;51.960;8.372;2022-11-20T14:43:32;5.97;;;3.73;;
20287;SDS011;10303;51.960;8.372;2022-11-20T14:46:02;6.87;;;3.77;;
20287;SDS011;10303;51.960;8.372;2022-11-20T14:48:39;4.73;;;3.87;;
20287;SDS011;10303;51.960;8.372;2022-11-20T14:51:12;6.13;;;4.30;;
20287;SDS011;10303;51.960;8.372;2022-11-20T14:54:18;5.67;;;3.30;;
20287;SDS011;10303;51.960;8.372;2022-11-20T14:56:54;6.07;;;4.40;;
20287;SDS011;10303;51.960;8.372;2022-11-20T14:59:27;6.93;;;4.40;;
20287;SDS011;10303;51.960;8.372;2022-11-20T15:02:00;5.47;;;3.80;;
20287;SDS011;10303;51.960;8.372;2022-11-20T15:04:44;6.23;;;3.60;;
20287;SDS011;10303;51.960;8.372;2022-11-20T15:07:28;5.83;;;3.60;;
20287;SDS011;10303;51.960;8.372;2022-11-20T15:12:49;4.37;;;3.33;;
20287;SDS011;10303;51.960;8.372;2022-11-20T15:17:55;7.23;;;4.73;;
20287;SDS011;10303;51.960;8.372;2022-11-20T15:20:24;9.00;;;3.87;;
20287;SDS011;10303;51.960;8.372;2022-11-20T15:22:56;6.77;;;4.40;;
20287;SDS011;10303;51.960;8.372;2022-11-20T15:25:23;4.37;;;3.07;;
20287;SDS011;10303;51.960;8.372;2022-11-20T15:27:51;5.73;;;3.70;;
20287;SDS011;10303;51.960;8.372;2022-11-20T15:30:22;5.67;;;3.63;;
20287;SDS011;10303;51.960;8.372;2022-11-20T15:32:49;6.60;;;4.17;;
20287;SDS011;10303;51.960;8.372;2022-11-20T15:35:15;7.57;;;3.93;;
20287;SDS011;10303;51.960;8.372;2022-11-20T15:37:41;7.67;;;3.73;;
20287;SDS011;10303;51.960;8.372;2022-11-20T15:40:08;6.70;;;4.53;;
20287;SDS011;10303;51.960;8.372;2022-11-20T15:42:35;4.57;;;3.87;;
20287;SDS011;10303;51.960;8.372;2022-11-20T15:45:01;6.57;;;4.30;;
20287;SDS011;10303;51.960;8.372;2022-11-20T15:47:29;11.00;;;4.40;;
20287;SDS011;10303;51.960;8.372;2022-11-20T15:50:01;5.07;;;3.80;;
20287;SDS011;10303;51.960;8.372;2022-11-20T15:52:27;7.03;;;4.13;;
20287;SDS011;10303;51.960;8.372;2022-11-20T15:54:53;6.33;;;4.60;;
20287;SDS011;10303;51.960;8.372;2022-11-20T15:57:19;9.67;;;4.20;;
20287;SDS011;10303;51.960;8.372;2022-11-20T15:59:46;7.50;;;4.10;;
20287;SDS011;10303;51.960;8.372;2022-11-20T16:02:13;4.80;;;3.90;;
20287;SDS011;10303;51.960;8.372;2022-11-20T16:04:41;7.13;;;4.17;;
20287;SDS011;10303;51.960;8.372;2022-11-20T16:07:07;7.33;;;4.87;;
20287;SDS011;10303;51.960;8.372;2022-11-20T16:09:33;7.00;;;4.03;;
20287;SDS011;10303;51.960;8.372;2022-11-20T16:11:59;6.40;;;4.40;;
20287;SDS011;10303;51.960;8.372;2022-11-20T16:14:26;7.00;;;4.40;;
20287;SDS011;10303;51.960;8.372;2022-11-20T16:17:11;6.10;;;4.30;;
20287;SDS011;10303;51.960;8.372;2022-11-20T16:19:38;6.17;;;4.37;;
20287;SDS011;10303;51.960;8.372;2022-11-20T16:22:04;7.23;;;4.47;;
20287;SDS011;10303;51.960;8.372;2022-11-20T16:24:31;5.33;;;4.07;;
20287;SDS011;10303;51.960;8.372;2022-11-20T16:26:57;6.97;;;4.07;;
20287;SDS011;10303;51.960;8.372;2022-11-20T16:29:23;5.10;;;3.60;;
20287;SDS011;10303;51.960;8.372;2022-11-20T16:31:49;6.13;;;4.83;;
20287;SDS011;10303;51.960;8.372;2022-11-20T16:34:15;6.83;;;4.23;;
20287;SDS011;10303;51.960;8.372;2022-11-20T16:36:42;6.07;;;4.20;;
20287;SDS011;10303;51.960;8.372;2022-11-20T16:39:10;5.03;;;3.60;;
20287;SDS011;10303;51.960;8.372;2022-11-20T16:41:37;6.37;;;4.20;;
20287;SDS011;10303;51.960;8.372;2022-11-20T16:44:08;6.93;;;4.10;;
20287;SDS011;10303;51.960;8.372;2022-11-20T16:46:35;5.07;;;3.97;;
20287;SDS011;10303;51.960;8.372;2022-11-20T16:49:03;4.47;;;3.23;;
20287;SDS011;10303;51.960;8.372;2022-11-20T16:51:33;6.93;;;3.73;;
20287;SDS011;10303;51.960;8.372;2022-11-20T16:54:00;4.63;;;4.13;;
20287;SDS011;10303;51.960;8.372;2022-11-20T16:56:29;7.37;;;4.73;;
20287;SDS011;10303;51.960;8.372;2022-11-20T16:58:57;7.53;;;4.53;;
20287;SDS011;10303;51.960;8.372;2022-11-20T17:01:25;6.87;;;3.97;;
20287;SDS011;10303;51.960;8.372;2022-11-20T17:03:54;6.00;;;3.97;;
20287;SDS011;10303;51.960;8.372;2022-11-20T17:06:26;6.93;;;4.43;;
20287;SDS011;10303;51.960;8.372;2022-11-20T17:08:55;5.77;;;3.90;;
20287;SDS011;10303;51.960;8.372;2022-11-20T17:11:23;5.57;;;3.77;;
20287;SDS011;10303;51.960;8.372;2022-11-20T17:13:51;5.87;;;4.43;;
20287;SDS011;10303;51.960;8.372;2022-11-20T17:16:20;10.20;;;4.70;;
20287;SDS011;10303;51.960;8.372;2022-11-20T17:18:49;7.13;;;4.23;;
20287;SDS011;10303;51.960;8.372;2022-11-20T17:21:16;5.63;;;4.03;;